createdAt,value
2023-04-23T00:00:13.595Z,50301.19
2023-04-23T00:03:10.722Z,50299.99
2023-04-23T00:05:39.832Z,50290.79
2023-04-23T00:08:10.370Z,50300.39
2023-04-23T00:10:39.926Z,50295.20
2023-04-23T00:13:08.474Z,50286.79
2023-04-23T00:15:37.594Z,50267.60
2023-04-23T00:18:06.112Z,50284.39
2023-04-23T00:20:35.584Z,50302.39
2023-04-23T00:23:03.864Z,50283.99
2023-04-23T00:25:32.359Z,50294.39
2023-04-23T00:28:00.879Z,50294.39
2023-04-23T00:30:29.778Z,50308.79
2023-04-23T00:32:58.293Z,50294.79
2023-04-23T00:35:27.073Z,50265.60
2023-04-23T00:37:56.507Z,50292.39
2023-04-23T00:40:24.856Z,50282.39
2023-04-23T00:42:53.992Z,50277.60
2023-04-23T00:45:22.827Z,50303.99
2023-04-23T00:47:51.502Z,50281.60
2023-04-23T00:50:21.494Z,50282.80
2023-04-23T00:52:49.888Z,50290.39
2023-04-23T00:55:21.172Z,50274.40
2023-04-23T00:57:51.301Z,50282.40
2023-04-23T01:00:20.633Z,50302.39
2023-04-23T01:02:50.874Z,50283.20
2023-04-23T01:05:21.234Z,50294.79
2023-04-23T01:07:49.478Z,50285.99
2023-04-23T01:10:17.878Z,50308.39
2023-04-23T01:12:49.031Z,50286.40
2023-04-23T01:15:17.675Z,50303.99
2023-04-23T01:17:46.718Z,50296.39
2023-04-23T01:20:15.124Z,50306.79
2023-04-23T01:22:43.632Z,50282.79
2023-04-23T01:25:12.150Z,50290.00
2023-04-23T01:27:41.272Z,50298.79
2023-04-23T01:30:10.051Z,50292.39
2023-04-23T01:32:39.748Z,50285.59
2023-04-23T01:35:08.621Z,50296.79
2023-04-23T01:37:39.032Z,50297.99
2023-04-23T01:40:08.660Z,50305.19
2023-04-23T01:42:36.873Z,50301.99
2023-04-23T01:45:08.185Z,50306.79
2023-04-23T01:47:36.931Z,50314.79
2023-04-23T01:50:05.796Z,50295.99
2023-04-23T01:52:34.260Z,50291.99
2023-04-23T01:55:09.765Z,50295.99
2023-04-23T01:57:38.208Z,50315.59
2023-04-23T02:00:08.812Z,50309.19
2023-04-23T02:02:45.157Z,50294.79
2023-04-23T02:05:19.135Z,50301.99
2023-04-23T02:07:50.329Z,50288.79
2023-04-23T02:10:18.933Z,50302.39
2023-04-23T02:12:48.434Z,50308.79
2023-04-23T02:15:16.859Z,50301.99
2023-04-23T02:17:45.191Z,50312.79
2023-04-23T02:20:13.722Z,50307.99
2023-04-23T02:22:42.885Z,50306.79
2023-04-23T02:25:12.142Z,50305.19
2023-04-23T02:27:40.431Z,50293.20
2023-04-23T02:30:11.631Z,50301.59
2023-04-23T02:32:40.362Z,50298.79
2023-04-23T02:35:10.634Z,50311.19
2023-04-23T02:37:40.089Z,50313.18
2023-04-23T02:40:09.688Z,50316.79
2023-04-23T02:42:38.238Z,50291.99
2023-04-23T02:45:07.930Z,50301.99
2023-04-23T02:47:36.960Z,50301.59
2023-04-23T02:50:06.639Z,50311.18
2023-04-23T02:52:35.117Z,50297.59
2023-04-23T02:55:04.136Z,50319.58
2023-04-23T02:57:33.062Z,50308.39
2023-04-23T03:00:01.420Z,50323.58
2023-04-23T03:02:36.715Z,50310.39
2023-04-23T03:05:06.761Z,50315.99
2023-04-23T03:07:35.112Z,50328.38
2023-04-23T03:10:03.700Z,50310.79
2023-04-23T03:12:32.453Z,50303.99
2023-04-23T03:15:02.424Z,50293.19
2023-04-23T03:17:32.026Z,50307.19
2023-04-23T03:20:01.101Z,50313.18
2023-04-23T03:22:29.333Z,50310.79
2023-04-23T03:24:57.551Z,50306.39
2023-04-23T03:27:26.918Z,50298.79
2023-04-23T03:29:56.854Z,50307.59
2023-04-23T03:32:25.320Z,50303.59
2023-04-23T03:34:53.837Z,50305.99
2023-04-23T03:37:23.532Z,50323.98
2023-04-23T03:39:52.250Z,50295.59
2023-04-23T03:42:20.639Z,50307.99
2023-04-23T03:44:49.503Z,50298.39
2023-04-23T03:47:21.051Z,50294.39
2023-04-23T03:49:50.031Z,50314.79
2023-04-23T03:52:18.470Z,50291.20
2023-04-23T03:54:46.824Z,50284.39
2023-04-23T03:57:18.673Z,50261.61
2023-04-23T03:59:57.202Z,50277.60
2023-04-23T04:02:26.129Z,50288.79
2023-04-23T04:04:55.486Z,50283.60
2023-04-23T04:07:27.194Z,50279.20
2023-04-23T04:09:57.529Z,50276.40
2023-04-23T04:12:27.566Z,50289.99
2023-04-23T04:14:56.582Z,50272.00
2023-04-23T04:17:24.910Z,50269.20
2023-04-23T04:19:53.908Z,50273.20
2023-04-23T04:22:22.230Z,50270.40
2023-04-23T04:24:52.711Z,50268.80
2023-04-23T04:27:21.406Z,50261.60
2023-04-23T04:29:50.114Z,50264.40
2023-04-23T04:32:19.413Z,50272.40
2023-04-23T04:34:47.677Z,50261.61
2023-04-23T04:37:15.858Z,50261.60
2023-04-23T04:39:44.380Z,50264.00
2023-04-23T04:42:13.306Z,50250.80
2023-04-23T04:44:43.824Z,50278.40
2023-04-23T04:47:13.667Z,50263.20
2023-04-23T04:49:41.903Z,50250.01
2023-04-23T04:52:10.167Z,50250.01
2023-04-23T04:54:38.429Z,50247.61
2023-04-23T04:57:07.048Z,50236.80
2023-04-23T04:59:35.335Z,50248.41
2023-04-23T05:02:03.611Z,50248.80
2023-04-23T05:04:33.022Z,50243.61
2023-04-23T05:07:01.385Z,50244.41
2023-04-23T05:09:29.585Z,50242.01
2023-04-23T05:11:58.177Z,50234.41
2023-04-23T05:14:27.034Z,50246.41
2023-04-23T05:16:58.147Z,50220.41
2023-04-23T05:19:26.581Z,50223.21
2023-04-23T05:21:55.547Z,50224.82
2023-04-23T05:24:24.260Z,50225.61
2023-04-23T05:26:52.526Z,50200.82
2023-04-23T05:29:20.820Z,50212.02
2023-04-23T05:31:49.088Z,50215.21
2023-04-23T05:34:17.410Z,50218.82
2023-04-23T05:36:45.672Z,50218.82
2023-04-23T05:39:14.463Z,50212.82
2023-04-23T05:41:43.833Z,50226.41
2023-04-23T05:44:12.133Z,50221.62
2023-04-23T05:46:40.693Z,50213.62
2023-04-23T05:49:08.911Z,50212.42
2023-04-23T05:51:37.159Z,50224.81
2023-04-23T05:54:06.344Z,50210.42
2023-04-23T05:56:34.828Z,50209.62
2023-04-23T05:59:03.040Z,50195.63
2023-04-23T06:01:31.314Z,50200.82
2023-04-23T06:04:00.384Z,50185.63
2023-04-23T06:06:29.178Z,50191.63
2023-04-23T06:08:57.375Z,50192.43
2023-04-23T06:11:25.694Z,50197.22
2023-04-23T06:13:53.867Z,50190.83
2023-04-23T06:16:22.385Z,50195.22
2023-04-23T06:18:51.048Z,50193.63
2023-04-23T06:21:19.787Z,50190.43
2023-04-23T06:23:48.631Z,50169.23
2023-04-23T06:26:20.297Z,50204.42
2023-04-23T06:28:48.958Z,50190.82
2023-04-23T06:31:36.656Z,50176.83
2023-04-23T06:34:05.011Z,50175.24
2023-04-23T06:36:33.309Z,50176.03
2023-04-23T06:39:02.723Z,50190.83
2023-04-23T06:41:32.678Z,50174.83
2023-04-23T06:44:10.208Z,50178.83
2023-04-23T06:46:42.692Z,50183.23
2023-04-23T06:49:10.949Z,50170.04
2023-04-23T06:51:39.446Z,50160.44
2023-04-23T06:54:07.734Z,50160.04
2023-04-23T06:56:36.335Z,50183.23
2023-04-23T06:59:04.549Z,50172.43
2023-04-23T07:01:33.048Z,50156.04
2023-04-23T07:04:01.343Z,50175.63
2023-04-23T07:06:29.641Z,50168.83
2023-04-23T07:08:59.531Z,50152.04
2023-04-23T07:11:27.811Z,50165.63
2023-04-23T07:13:55.991Z,50143.24
2023-04-23T07:16:25.879Z,50161.24
2023-04-23T07:18:54.209Z,50152.44
2023-04-23T07:21:22.434Z,50151.64
2023-04-23T07:23:51.180Z,50153.24
2023-04-23T07:26:21.367Z,50155.64
2023-04-23T07:28:52.737Z,50160.84
2023-04-23T07:31:24.199Z,50151.64
2023-04-23T07:33:52.589Z,50134.85
2023-04-23T07:36:21.005Z,50150.04
2023-04-23T07:38:49.803Z,50146.44
2023-04-23T07:41:18.582Z,50155.64
2023-04-23T07:43:47.657Z,50151.64
2023-04-23T07:46:16.119Z,50130.85
2023-04-23T07:48:44.619Z,50144.84
2023-04-23T07:51:12.830Z,50151.64
2023-04-23T07:53:41.352Z,50127.65
2023-04-23T07:56:09.549Z,50134.45
2023-04-23T07:58:37.703Z,50143.24
2023-04-23T08:01:05.969Z,50148.44
2023-04-23T08:03:34.386Z,50136.85
2023-04-23T08:06:04.856Z,50139.65
2023-04-23T08:08:33.136Z,50141.64
2023-04-23T08:11:01.734Z,50124.85
2023-04-23T08:13:29.895Z,50126.85
2023-04-23T08:15:58.061Z,50134.04
2023-04-23T08:18:26.434Z,50134.45
2023-04-23T08:20:56.812Z,50128.85
2023-04-23T08:23:25.147Z,50122.05
2023-04-23T08:25:53.436Z,50133.65
2023-04-23T08:28:24.972Z,50129.25
2023-04-23T08:30:55.463Z,50136.84
2023-04-23T08:33:25.732Z,50130.45
2023-04-23T08:35:53.988Z,50147.64
2023-04-23T08:38:22.632Z,50137.24
2023-04-23T08:40:57.108Z,50128.45
2023-04-23T08:43:42.510Z,50120.05
2023-04-23T08:46:15.295Z,50132.45
2023-04-23T08:48:45.789Z,50141.64
2023-04-23T08:51:19.603Z,50140.84
2023-04-23T08:53:52.624Z,50146.04
2023-04-23T08:56:21.843Z,50139.65
2023-04-23T08:58:50.481Z,50138.05
2023-04-23T09:01:19.571Z,50131.25
2023-04-23T09:03:48.418Z,50142.45
2023-04-23T09:06:20.013Z,50146.44
2023-04-23T09:08:48.944Z,50137.65
2023-04-23T09:11:19.529Z,50128.45
2023-04-23T09:13:47.754Z,50128.85
2023-04-23T09:16:16.281Z,50136.45
2023-04-23T09:18:44.611Z,50136.45
2023-04-23T09:21:14.728Z,50128.05
2023-04-23T09:23:43.584Z,50147.64
2023-04-23T09:26:23.173Z,50140.05
2023-04-23T09:28:51.640Z,50146.04
2023-04-23T09:31:24.551Z,50156.44
2023-04-23T09:33:54.623Z,50154.84
2023-04-23T09:36:24.496Z,50140.45
2023-04-23T09:38:57.759Z,50148.04
2023-04-23T09:41:27.807Z,50135.25
2023-04-23T09:43:59.091Z,50143.24
2023-04-23T09:46:42.864Z,50144.44
2023-04-23T09:49:13.011Z,50134.45
2023-04-23T09:51:47.683Z,50139.64
2023-04-23T09:54:16.832Z,50129.65
2023-04-23T09:56:49.934Z,50129.25
2023-04-23T09:59:35.952Z,50138.04
2023-04-23T10:02:08.553Z,50131.65
2023-04-23T10:04:39.278Z,50123.25
2023-04-23T10:07:19.896Z,50123.65
2023-04-23T10:09:48.654Z,50140.84
2023-04-23T10:12:35.685Z,50148.45
2023-04-23T10:15:08.255Z,50134.05
2023-04-23T10:17:37.969Z,50139.25
2023-04-23T10:20:08.538Z,50112.85
2023-04-23T10:22:39.068Z,50116.45
2023-04-23T10:25:12.398Z,50105.26
2023-04-23T10:27:53.215Z,50130.85
2023-04-23T10:30:23.465Z,50120.85
2023-04-23T10:32:51.999Z,50104.46
2023-04-23T10:35:21.287Z,50124.45
2023-04-23T10:37:51.237Z,50115.65
2023-04-23T10:40:24.965Z,50123.25
2023-04-23T10:42:54.022Z,50114.45
2023-04-23T10:45:25.416Z,50112.86
2023-04-23T10:47:57.809Z,50120.05
2023-04-23T10:50:28.349Z,50113.65
2023-04-23T10:52:58.316Z,50122.45
2023-04-23T10:55:30.283Z,50116.85
2023-04-23T10:58:01.671Z,50109.66
2023-04-23T11:00:56.823Z,50108.05
2023-04-23T11:03:44.218Z,50116.85
2023-04-23T11:06:17.709Z,50111.66
2023-04-23T11:08:54.360Z,50102.86
2023-04-23T11:11:44.401Z,50111.26
2023-04-23T11:14:16.357Z,50108.46
2023-04-23T11:16:44.801Z,50103.66
2023-04-23T11:19:13.253Z,50119.25
2023-04-23T11:21:57.944Z,50107.26
2023-04-23T11:24:37.319Z,50114.86
2023-04-23T11:27:07.681Z,50110.86
2023-04-23T11:29:37.733Z,50120.86
2023-04-23T11:32:13.766Z,50117.66
2023-04-23T11:34:47.624Z,50127.25
2023-04-23T11:37:17.860Z,50116.85
2023-04-23T11:39:47.731Z,50135.25
2023-04-23T11:42:17.507Z,50139.65
2023-04-23T11:44:46.822Z,50117.65
2023-04-23T11:47:17.054Z,50128.05
2023-04-23T11:49:45.979Z,50130.05
2023-04-23T11:52:14.947Z,50121.65
2023-04-23T11:54:43.173Z,50129.65
2023-04-23T11:57:12.224Z,50129.25
2023-04-23T11:59:41.727Z,50116.85
2023-04-23T12:02:11.893Z,50112.45
2023-04-23T12:04:41.335Z,50132.85
2023-04-23T12:07:23.108Z,50122.05
2023-04-23T12:10:00.326Z,50122.05
2023-04-23T12:12:35.892Z,50126.45
2023-04-23T12:15:08.672Z,50117.65
2023-04-23T12:17:38.558Z,50133.25
2023-04-23T12:20:13.020Z,50128.85
2023-04-23T12:22:41.395Z,50139.24
2023-04-23T12:25:09.871Z,50138.45
2023-04-23T12:27:42.858Z,50130.05
2023-04-23T12:30:12.111Z,50129.25
2023-04-23T12:32:41.444Z,50126.85
2023-04-23T12:35:11.383Z,50138.45
2023-04-23T12:37:39.582Z,50118.05
2023-04-23T12:40:08.434Z,50132.05
2023-04-23T12:42:36.915Z,50125.65
2023-04-23T12:45:10.257Z,50118.45
2023-04-23T12:47:38.576Z,50124.05
2023-04-23T12:50:07.427Z,50132.85
2023-04-23T12:52:35.778Z,50120.45
2023-04-23T12:55:05.260Z,50123.64
2023-04-23T12:57:33.667Z,50125.65
2023-04-23T13:00:02.482Z,50104.06
2023-04-23T13:02:31.570Z,50131.25
2023-04-23T13:05:01.901Z,50134.45
2023-04-23T13:07:30.357Z,50132.85
2023-04-23T13:09:59.801Z,50123.65
2023-04-23T13:12:28.286Z,50130.45
2023-04-23T13:14:57.031Z,50135.25
2023-04-23T13:17:27.029Z,50132.05
2023-04-23T13:19:56.156Z,50138.04
2023-04-23T13:22:28.724Z,50137.25
2023-04-23T13:24:58.496Z,50135.24
2023-04-23T13:27:29.574Z,50140.04
2023-04-23T13:29:58.885Z,50133.25
2023-04-23T13:32:32.143Z,50118.05
2023-04-23T13:35:03.082Z,50121.65
2023-04-23T13:37:31.980Z,50130.05
2023-04-23T13:40:00.263Z,50136.85
2023-04-23T13:42:28.430Z,50122.05
2023-04-23T13:44:57.166Z,50126.05
2023-04-23T13:47:26.878Z,50135.25
2023-04-23T13:49:55.200Z,50126.45
2023-04-23T13:52:23.884Z,50132.05
2023-04-23T13:54:53.258Z,50138.04
2023-04-23T13:57:21.567Z,50150.45
2023-04-23T13:59:50.149Z,50138.45
2023-04-23T14:02:18.418Z,50125.25
2023-04-23T14:04:46.775Z,50136.85
2023-04-23T14:07:15.097Z,50128.85
2023-04-23T14:09:43.726Z,50137.64
2023-04-23T14:12:12.666Z,50148.44
2023-04-23T14:14:43.677Z,50142.45
2023-04-23T14:17:12.140Z,50145.24
2023-04-23T14:19:40.641Z,50141.24
2023-04-23T14:22:09.526Z,50144.04
2023-04-23T14:24:46.569Z,50118.45
2023-04-23T14:27:17.662Z,50154.44
2023-04-23T14:29:56.291Z,50150.44
2023-04-23T14:32:24.589Z,50146.84
2023-04-23T14:34:52.937Z,50154.04
2023-04-23T14:37:21.395Z,50153.64
2023-04-23T14:39:49.615Z,50141.25
2023-04-23T14:42:19.934Z,50151.24
2023-04-23T14:44:48.164Z,50147.64
2023-04-23T14:47:16.499Z,50165.23
2023-04-23T14:49:45.913Z,50158.84
2023-04-23T14:52:14.446Z,50164.04
2023-04-23T14:54:43.280Z,50164.43
2023-04-23T14:57:11.550Z,50163.64
2023-04-23T14:59:40.168Z,50154.84
2023-04-23T15:02:09.906Z,50159.64
2023-04-23T15:04:39.300Z,50153.64
2023-04-23T15:07:08.692Z,50152.84
2023-04-23T15:09:37.014Z,50162.04
2023-04-23T15:12:27.172Z,50177.23
2023-04-23T15:14:56.640Z,50166.44
2023-04-23T15:17:24.822Z,50171.24
2023-04-23T15:19:54.690Z,50161.64
2023-04-23T15:22:23.988Z,50167.23
2023-04-23T15:24:52.341Z,50164.44
2023-04-23T15:27:22.362Z,50164.84
2023-04-23T15:29:50.717Z,50149.64
2023-04-23T15:32:18.992Z,50160.84
2023-04-23T15:34:47.234Z,50154.04
2023-04-23T15:37:15.945Z,50162.04
2023-04-23T15:39:44.527Z,50168.44
2023-04-23T15:42:14.960Z,50158.84
2023-04-23T15:44:48.659Z,50157.64
2023-04-23T15:47:17.533Z,50153.24
2023-04-23T15:49:46.554Z,50151.64
2023-04-23T15:52:17.689Z,50121.25
2023-04-23T15:54:46.330Z,50138.84
2023-04-23T15:57:14.617Z,50135.65
2023-04-23T15:59:45.451Z,50149.24
2023-04-23T16:02:14.753Z,50158.44
2023-04-23T16:04:43.488Z,50137.65
2023-04-23T16:07:12.242Z,50151.64
2023-04-23T16:09:40.596Z,50142.45
2023-04-23T16:12:10.704Z,50149.64
2023-04-23T16:14:39.250Z,50170.84
2023-04-23T16:17:07.506Z,50151.24
2023-04-23T16:19:35.763Z,50152.84
2023-04-23T16:22:04.031Z,50175.23
2023-04-23T16:24:32.272Z,50182.03
2023-04-23T16:27:02.588Z,50172.04
2023-04-23T16:29:30.806Z,50177.63
2023-04-23T16:31:59.010Z,50174.83
2023-04-23T16:34:27.199Z,50182.03
2023-04-23T16:36:59.204Z,50202.02
2023-04-23T16:39:27.747Z,50175.63
2023-04-23T16:41:56.132Z,50192.82
2023-04-23T16:44:24.869Z,50186.43
2023-04-23T16:46:57.199Z,50182.03
2023-04-23T16:49:25.767Z,50193.63
2023-04-23T16:51:55.075Z,50212.02
2023-04-23T16:54:24.776Z,50202.02
2023-04-23T16:56:54.745Z,50203.22
2023-04-23T16:59:23.124Z,50214.82
2023-04-23T17:01:51.414Z,50198.82
2023-04-23T17:04:19.769Z,50210.02
2023-04-23T17:06:48.372Z,50204.82
2023-04-23T17:09:16.778Z,50212.82
2023-04-23T17:11:44.972Z,50215.22
2023-04-23T17:14:13.273Z,50215.62
2023-04-23T17:16:41.945Z,50219.22
2023-04-23T17:19:10.697Z,50220.41
2023-04-23T17:21:38.995Z,50228.81
2023-04-23T17:24:08.517Z,50230.81
2023-04-23T17:26:39.794Z,50227.62
2023-04-23T17:29:08.289Z,50236.41
2023-04-23T17:31:38.627Z,50230.81
2023-04-23T17:34:07.458Z,50218.42
2023-04-23T17:36:36.169Z,50240.41
2023-04-23T17:39:07.739Z,50220.02
2023-04-23T17:41:36.086Z,50221.62
2023-04-23T17:44:06.239Z,50236.81
2023-04-23T17:46:38.453Z,50228.41
2023-04-23T17:49:08.107Z,50226.81
2023-04-23T17:51:37.624Z,50232.01
2023-04-23T17:54:06.641Z,50222.02
2023-04-23T17:56:34.862Z,50230.41
2023-04-23T17:59:04.025Z,50225.61
2023-04-23T18:01:38.356Z,50214.42
2023-04-23T18:04:07.152Z,50237.21
2023-04-23T18:06:37.246Z,50236.41
2023-04-23T18:09:05.489Z,50233.21
2023-04-23T18:11:33.809Z,50234.41
2023-04-23T18:14:02.553Z,50229.21
2023-04-23T18:16:30.896Z,50245.21
2023-04-23T18:18:59.314Z,50236.41
2023-04-23T18:21:27.914Z,50249.61
2023-04-23T18:23:56.416Z,50226.01
2023-04-23T18:26:24.894Z,50242.81
2023-04-23T18:28:53.378Z,50232.01
2023-04-23T18:31:21.837Z,50245.21
2023-04-23T18:33:52.618Z,50235.61
2023-04-23T18:36:24.606Z,50257.21
2023-04-23T18:38:53.219Z,50238.41
2023-04-23T18:41:21.445Z,50236.01
2023-04-23T18:43:52.640Z,50242.01
2023-04-23T18:46:23.068Z,50247.61
2023-04-23T18:49:01.179Z,50245.21
2023-04-23T18:51:44.672Z,50255.20
2023-04-23T18:54:17.788Z,50263.20
2023-04-23T18:56:46.533Z,50238.41
2023-04-23T18:59:15.257Z,50245.61
2023-04-23T19:01:45.411Z,50243.21
2023-04-23T19:04:15.318Z,50260.80
2023-04-23T19:06:43.813Z,50264.41
2023-04-23T19:09:12.183Z,50261.21
2023-04-23T19:11:40.572Z,50262.01
2023-04-23T19:14:08.796Z,50260.01
2023-04-23T19:16:37.579Z,50274.40
2023-04-23T19:19:06.070Z,50258.80
2023-04-23T19:21:34.638Z,50267.20
2023-04-23T19:24:03.427Z,50259.61
2023-04-23T19:26:31.681Z,50258.40
2023-04-23T19:28:59.957Z,50248.01
2023-04-23T19:31:29.281Z,50253.21
2023-04-23T19:33:57.667Z,50264.00
2023-04-23T19:36:26.595Z,50248.80
2023-04-23T19:38:54.998Z,50250.01
2023-04-23T19:41:23.935Z,50246.01
2023-04-23T19:43:52.556Z,50252.80
2023-04-23T19:46:21.301Z,50260.80
2023-04-23T19:48:49.498Z,50245.21
2023-04-23T19:51:20.880Z,50248.41
2023-04-23T19:53:49.179Z,50265.20
2023-04-23T19:56:18.673Z,50252.41
2023-04-23T19:58:46.943Z,50268.80
2023-04-23T20:01:15.231Z,50254.01
2023-04-23T20:03:43.911Z,50255.60
2023-04-23T20:06:12.564Z,50260.41
2023-04-23T20:09:03.561Z,50254.80
2023-04-23T20:11:31.916Z,50251.61
2023-04-23T20:14:03.501Z,50254.41
2023-04-23T20:16:32.178Z,50247.61
2023-04-23T20:19:02.069Z,50250.80
2023-04-23T20:21:30.456Z,50260.01
2023-04-23T20:23:58.714Z,50263.20
2023-04-23T20:26:27.213Z,50262.80
2023-04-23T20:28:55.634Z,50254.01
2023-04-23T20:31:23.838Z,50267.60
2023-04-23T20:33:52.138Z,50257.61
2023-04-23T20:36:20.417Z,50268.40
2023-04-23T20:38:50.785Z,50252.41
2023-04-23T20:41:18.956Z,50264.00
2023-04-23T20:43:47.171Z,50270.00
2023-04-23T20:46:16.415Z,50268.80
2023-04-23T20:48:44.681Z,50276.00
2023-04-23T20:51:13.249Z,50248.41
2023-04-23T20:53:41.616Z,50270.80
2023-04-23T20:56:09.756Z,50263.20
2023-04-23T20:58:37.946Z,50260.40
2023-04-23T21:01:08.059Z,50280.40
2023-04-23T21:03:37.178Z,50266.80
2023-04-23T21:06:08.104Z,50276.40
2023-04-23T21:08:41.519Z,50271.60
2023-04-23T21:11:19.833Z,50268.80
2023-04-23T21:13:50.932Z,50272.00
2023-04-23T21:16:19.222Z,50246.01
2023-04-23T21:18:47.538Z,50262.01
2023-04-23T21:21:15.771Z,50272.80
2023-04-23T21:23:43.943Z,50263.20
2023-04-23T21:26:12.506Z,50260.40
2023-04-23T21:28:40.846Z,50283.59
2023-04-23T21:31:22.391Z,50263.21
2023-04-23T21:33:50.743Z,50266.00
2023-04-23T21:36:23.253Z,50284.80
2023-04-23T21:38:53.796Z,50259.61
2023-04-23T21:41:22.049Z,50266.00
2023-04-23T21:43:50.529Z,50273.60
2023-04-23T21:46:19.137Z,50274.00
2023-04-23T21:48:49.651Z,50290.39
2023-04-23T21:51:17.973Z,50286.39
2023-04-23T21:53:46.238Z,50267.20
2023-04-23T21:56:15.377Z,50281.99
2023-04-23T21:58:44.787Z,50275.60
2023-04-23T22:01:13.041Z,50271.20
2023-04-23T22:03:43.595Z,50278.80
2023-04-23T22:06:13.057Z,50282.40
2023-04-23T22:08:41.216Z,50280.79
2023-04-23T22:11:09.489Z,50276.40
2023-04-23T22:13:37.719Z,50279.20
2023-04-23T22:16:13.459Z,50289.20
2023-04-23T22:18:48.987Z,50277.60
2023-04-23T22:21:17.197Z,50278.00
2023-04-23T22:23:45.554Z,50285.20
2023-04-23T22:26:13.763Z,50290.79
2023-04-23T22:28:43.515Z,50284.39
2023-04-23T22:31:11.757Z,50282.39
2023-04-23T22:33:39.929Z,50287.99
2023-04-23T22:36:08.186Z,50277.20
2023-04-23T22:38:36.410Z,50272.80
2023-04-23T22:41:04.609Z,50280.40
2023-04-23T22:43:32.780Z,50272.80
2023-04-23T22:46:01.193Z,50278.80
2023-04-23T22:48:30.954Z,50267.20
2023-04-23T22:50:59.282Z,50309.59
2023-04-23T22:53:27.477Z,50279.59
2023-04-23T22:55:56.276Z,50288.40
2023-04-23T22:58:24.520Z,50283.59
2023-04-23T23:00:52.732Z,50276.39
2023-04-23T23:03:21.558Z,50286.39
2023-04-23T23:05:49.986Z,50272.80
2023-04-23T23:08:18.905Z,50293.99
2023-04-23T23:10:47.220Z,50276.00
2023-04-23T23:13:15.630Z,50296.39
2023-04-23T23:15:44.103Z,50275.20
2023-04-23T23:18:12.502Z,50287.99
2023-04-23T23:20:41.849Z,50298.79
2023-04-23T23:23:10.375Z,50252.80
2023-04-23T23:25:38.720Z,50282.00
2023-04-23T23:28:07.790Z,50291.59
2023-04-23T23:30:36.408Z,50289.20
2023-04-23T23:33:04.936Z,50286.79
2023-04-23T23:35:33.547Z,50291.59
2023-04-23T23:38:01.758Z,50271.60
2023-04-23T23:40:30.279Z,50280.40
2023-04-23T23:42:59.017Z,50297.99
2023-04-23T23:45:27.518Z,50279.59
2023-04-23T23:47:55.883Z,50291.99
2023-04-23T23:50:24.401Z,50283.99
2023-04-23T23:52:53.942Z,50274.00
2023-04-23T23:55:22.152Z,50293.59
2023-04-23T23:57:50.369Z,50281.59
